createdAt,value
2023-01-13T00:01:13.276Z,8.60
2023-01-13T00:03:40.610Z,8.50
2023-01-13T00:06:08.467Z,8.50
2023-01-13T00:08:36.044Z,8.60
2023-01-13T00:11:02.930Z,8.60
2023-01-13T00:13:31.815Z,8.60
2023-01-13T00:16:05.544Z,8.60
2023-01-13T00:18:33.683Z,8.60
2023-01-13T00:21:07.798Z,8.60
2023-01-13T00:23:35.808Z,8.60
2023-01-13T00:26:06.469Z,8.60
2023-01-13T00:28:33.441Z,8.60
2023-01-13T00:31:12.150Z,8.70
2023-01-13T00:33:39.837Z,8.60
2023-01-13T00:36:09.170Z,8.70
2023-01-13T00:38:36.738Z,8.70
2023-01-13T00:41:15.141Z,8.70
2023-01-13T00:43:42.295Z,8.70
2023-01-13T00:46:11.991Z,8.70
2023-01-13T00:48:39.403Z,8.70
2023-01-13T00:51:18.226Z,8.70
2023-01-13T00:53:48.056Z,8.80
2023-01-13T00:56:38.413Z,8.70
2023-01-13T00:59:06.446Z,8.70
2023-01-13T01:01:33.472Z,8.80
2023-01-13T01:04:00.411Z,8.80
2023-01-13T01:06:28.231Z,8.80
2023-01-13T01:08:55.963Z,8.80
2023-01-13T01:11:25.764Z,8.80
2023-01-13T01:13:54.860Z,8.80
2023-01-13T01:16:24.188Z,8.80
2023-01-13T01:18:52.599Z,8.80
2023-01-13T01:21:19.963Z,8.70
2023-01-13T01:23:47.115Z,8.80
2023-01-13T01:26:20.130Z,8.80
2023-01-13T01:28:47.372Z,8.70
2023-01-13T01:31:23.964Z,8.80
2023-01-13T01:33:51.404Z,8.80
2023-01-13T01:36:20.823Z,8.80
2023-01-13T01:38:49.317Z,8.80
2023-01-13T01:41:25.766Z,8.80
2023-01-13T01:44:07.785Z,8.80
2023-01-13T01:46:36.254Z,8.80
2023-01-13T01:49:18.207Z,8.80
2023-01-13T01:52:04.523Z,8.90
2023-01-13T01:54:34.519Z,8.90
2023-01-13T01:57:01.665Z,8.90
2023-01-13T01:59:32.550Z,8.90
2023-01-13T02:01:59.698Z,8.90
2023-01-13T02:04:31.890Z,9.00
2023-01-13T02:06:58.829Z,9.00
2023-01-13T02:09:26.852Z,9.00
2023-01-13T02:12:12.161Z,9.00
2023-01-13T02:14:40.674Z,9.00
2023-01-13T02:17:29.263Z,9.00
2023-01-13T02:20:34.020Z,9.00
2023-01-13T02:23:42.228Z,9.10
2023-01-13T02:26:36.781Z,9.10
2023-01-13T02:29:48.153Z,9.10
2023-01-13T02:32:29.224Z,9.10
2023-01-13T02:35:18.772Z,9.20
2023-01-13T02:37:46.283Z,9.20
2023-01-13T02:40:32.039Z,9.10
2023-01-13T02:43:42.201Z,9.10
2023-01-13T02:46:17.876Z,9.10
2023-01-13T02:48:47.873Z,9.10
2023-01-13T02:51:18.821Z,9.10
2023-01-13T02:54:01.486Z,9.10
2023-01-13T02:56:30.798Z,9.10
2023-01-13T02:58:59.596Z,9.10
2023-01-13T03:01:26.810Z,9.10
2023-01-13T03:03:53.760Z,9.10
2023-01-13T03:06:48.218Z,9.10
2023-01-13T03:09:45.179Z,9.10
2023-01-13T03:12:35.071Z,9.20
2023-01-13T03:15:11.588Z,9.20
2023-01-13T03:17:47.189Z,9.20
2023-01-13T03:20:25.889Z,9.20
2023-01-13T03:22:53.294Z,9.30
2023-01-13T03:25:34.436Z,9.30
2023-01-13T03:28:08.867Z,9.30
2023-01-13T03:30:44.735Z,9.30
2023-01-13T03:33:11.524Z,9.30
2023-01-13T03:35:41.952Z,9.30
2023-01-13T03:38:30.669Z,9.30
2023-01-13T03:41:07.217Z,9.30
2023-01-13T03:44:00.798Z,9.30
2023-01-13T03:46:47.190Z,9.30
2023-01-13T03:49:18.946Z,9.30
2023-01-13T03:51:50.077Z,9.30
2023-01-13T03:54:19.668Z,9.20
2023-01-13T03:56:51.687Z,9.20
2023-01-13T03:59:22.739Z,9.20
2023-01-13T04:02:07.948Z,9.20
2023-01-13T04:04:41.825Z,9.20
2023-01-13T04:07:17.529Z,9.20
2023-01-13T04:09:44.344Z,9.20
2023-01-13T04:12:16.405Z,9.20
2023-01-13T04:14:44.742Z,9.20
2023-01-13T04:17:11.900Z,9.20
2023-01-13T04:19:38.764Z,9.20
2023-01-13T04:22:05.629Z,9.10
2023-01-13T04:24:32.464Z,9.10
2023-01-13T04:26:59.330Z,9.20
2023-01-13T04:29:26.211Z,9.10
2023-01-13T04:31:53.053Z,9.10
2023-01-13T04:34:19.935Z,9.10
2023-01-13T04:36:46.922Z,9.10
2023-01-13T04:39:13.875Z,9.10
2023-01-13T04:42:00.978Z,9.10
2023-01-13T04:44:28.115Z,9.10
2023-01-13T04:46:54.981Z,9.00
2023-01-13T04:49:21.843Z,9.10
2023-01-13T04:51:48.704Z,9.10
2023-01-13T04:54:16.346Z,9.10
2023-01-13T04:56:43.407Z,9.10
2023-01-13T04:59:14.405Z,9.10
2023-01-13T05:01:41.793Z,9.10
2023-01-13T05:04:09.281Z,9.10
2023-01-13T05:06:36.131Z,9.20
2023-01-13T05:09:03.245Z,9.10
2023-01-13T05:11:48.528Z,9.20
2023-01-13T05:14:34.053Z,9.20
2023-01-13T05:17:00.976Z,9.20
2023-01-13T05:19:35.360Z,9.30
2023-01-13T05:22:22.581Z,9.30
2023-01-13T05:25:07.902Z,9.30
2023-01-13T05:27:35.157Z,9.30
2023-01-13T05:30:02.228Z,9.30
2023-01-13T05:32:29.139Z,9.30
2023-01-13T05:34:56.651Z,9.40
2023-01-13T05:37:24.240Z,9.40
2023-01-13T05:40:09.845Z,9.40
2023-01-13T05:42:55.429Z,9.40
2023-01-13T05:45:22.754Z,9.40
2023-01-13T05:47:49.962Z,9.40
2023-01-13T05:50:17.347Z,9.40
2023-01-13T05:52:44.547Z,9.40
2023-01-13T05:55:11.814Z,9.40
2023-01-13T05:57:38.641Z,9.40
2023-01-13T06:00:06.272Z,9.40
2023-01-13T06:02:33.275Z,9.40
2023-01-13T06:05:00.167Z,9.40
2023-01-13T06:07:27.008Z,9.40
2023-01-13T06:09:53.853Z,9.30
2023-01-13T06:12:20.673Z,9.30
2023-01-13T06:14:47.527Z,9.30
2023-01-13T06:17:15.679Z,9.40
2023-01-13T06:19:42.886Z,9.30
2023-01-13T06:22:22.085Z,9.30
2023-01-13T06:24:53.861Z,9.30
2023-01-13T06:27:22.326Z,9.30
2023-01-13T06:29:49.237Z,9.30
2023-01-13T06:32:19.608Z,9.30
2023-01-13T06:34:51.497Z,9.20
2023-01-13T06:37:23.480Z,9.20
2023-01-13T06:39:50.361Z,9.20
2023-01-13T06:42:35.964Z,9.20
2023-01-13T06:45:03.421Z,9.20
2023-01-13T06:47:30.263Z,9.20
2023-01-13T06:49:57.391Z,9.20
2023-01-13T06:52:24.504Z,9.20
2023-01-13T06:54:51.351Z,9.20
2023-01-13T06:57:18.174Z,9.20
2023-01-13T06:59:44.997Z,9.10
2023-01-13T07:02:11.984Z,9.10
2023-01-13T07:04:38.936Z,9.10
2023-01-13T07:07:05.803Z,9.10
2023-01-13T07:09:32.646Z,9.10
2023-01-13T07:11:59.898Z,9.10
2023-01-13T07:14:45.289Z,9.10
2023-01-13T07:17:12.140Z,9.10
2023-01-13T07:19:38.971Z,9.10
2023-01-13T07:22:05.793Z,9.10
2023-01-13T07:24:32.633Z,9.10
2023-01-13T07:26:59.465Z,9.20
2023-01-13T07:29:26.282Z,9.10
2023-01-13T07:31:53.123Z,9.20
2023-01-13T07:34:19.983Z,9.20
2023-01-13T07:36:46.861Z,9.20
2023-01-13T07:39:13.689Z,9.20
2023-01-13T07:41:59.328Z,9.20
2023-01-13T07:44:27.797Z,9.20
2023-01-13T07:46:54.643Z,9.20
2023-01-13T07:49:21.474Z,9.20
2023-01-13T07:51:48.291Z,9.20
2023-01-13T07:54:15.112Z,9.20
2023-01-13T07:56:42.000Z,9.20
2023-01-13T07:59:08.822Z,9.20
2023-01-13T08:01:35.720Z,9.30
2023-01-13T08:04:02.790Z,9.30
2023-01-13T08:06:29.694Z,9.30
2023-01-13T08:08:56.565Z,9.30
2023-01-13T08:11:23.763Z,9.40
2023-01-13T08:13:50.757Z,9.40
2023-01-13T08:16:17.795Z,9.40
2023-01-13T08:18:44.748Z,9.50
2023-01-13T08:21:14.356Z,9.50
2023-01-13T08:23:43.454Z,9.60
2023-01-13T08:26:12.769Z,9.60
2023-01-13T08:28:42.754Z,9.60
2023-01-13T08:31:13.784Z,9.70
2023-01-13T08:33:40.927Z,9.70
2023-01-13T08:36:10.174Z,9.70
2023-01-13T08:38:37.508Z,9.80
2023-01-13T08:41:15.874Z,9.80
2023-01-13T08:43:42.899Z,9.80
2023-01-13T08:46:09.986Z,9.80
2023-01-13T08:48:37.167Z,9.80
2023-01-13T08:51:06.844Z,9.90
2023-01-13T08:53:33.889Z,9.90
2023-01-13T08:56:00.839Z,10.00
2023-01-13T08:58:28.160Z,10.10
2023-01-13T09:00:55.094Z,10.20
2023-01-13T09:03:22.011Z,10.30
2023-01-13T09:05:48.842Z,10.30
2023-01-13T09:08:15.712Z,10.40
2023-01-13T09:10:42.578Z,10.40
2023-01-13T09:13:13.569Z,10.40
2023-01-13T09:15:42.549Z,10.40
2023-01-13T09:18:09.862Z,10.40
2023-01-13T09:20:36.799Z,10.40
2023-01-13T09:23:05.634Z,10.40
2023-01-13T09:25:32.777Z,10.30
2023-01-13T09:27:59.611Z,10.30
2023-01-13T09:30:26.505Z,10.30
2023-01-13T09:33:13.301Z,10.40
2023-01-13T09:35:40.621Z,10.40
2023-01-13T09:38:07.727Z,10.40
2023-01-13T09:40:37.727Z,10.40
2023-01-13T09:43:39.967Z,10.40
2023-01-13T09:46:39.374Z,10.40
2023-01-13T09:49:09.504Z,10.40
2023-01-13T09:51:42.284Z,10.40
2023-01-13T09:54:20.259Z,10.40
2023-01-13T09:56:47.247Z,10.40
2023-01-13T09:59:16.311Z,10.40
2023-01-13T10:02:12.205Z,10.40
2023-01-13T10:04:39.041Z,10.30
2023-01-13T10:07:13.784Z,10.30
2023-01-13T10:09:47.164Z,10.30
2023-01-13T10:12:39.117Z,10.40
2023-01-13T10:15:06.541Z,10.40
2023-01-13T10:17:43.621Z,10.40
2023-01-13T10:20:33.467Z,10.40
2023-01-13T10:23:39.100Z,10.40
2023-01-13T10:26:24.284Z,10.40
2023-01-13T10:28:53.261Z,10.40
2023-01-13T10:31:21.406Z,10.40
2023-01-13T10:33:48.922Z,10.50
2023-01-13T10:36:18.106Z,10.60
2023-01-13T10:38:47.137Z,10.70
2023-01-13T10:41:16.986Z,10.80
2023-01-13T10:44:03.593Z,11.00
2023-01-13T10:46:33.620Z,11.10
2023-01-13T10:49:24.569Z,11.20
2023-01-13T10:51:51.483Z,11.20
2023-01-13T10:54:20.594Z,11.10
2023-01-13T10:56:47.468Z,11.10
2023-01-13T10:59:24.120Z,11.10
2023-01-13T11:02:04.027Z,11.00
2023-01-13T11:04:42.636Z,11.00
2023-01-13T11:07:36.560Z,10.90
2023-01-13T11:10:09.014Z,11.00
2023-01-13T11:13:05.423Z,11.00
2023-01-13T11:15:39.933Z,11.00
2023-01-13T11:18:40.304Z,11.00
2023-01-13T11:21:20.087Z,11.00
2023-01-13T11:23:55.417Z,11.00
2023-01-13T11:26:27.514Z,11.00
2023-01-13T11:29:16.142Z,11.00
2023-01-13T11:31:53.125Z,10.90
2023-01-13T11:34:40.377Z,10.90
2023-01-13T11:37:18.255Z,10.90
2023-01-13T11:39:59.811Z,10.90
2023-01-13T11:42:30.050Z,11.00
2023-01-13T11:45:17.005Z,11.00
2023-01-13T11:47:47.506Z,11.10
2023-01-13T11:50:28.239Z,11.10
2023-01-13T11:53:09.488Z,11.20
2023-01-13T11:56:03.235Z,11.20
2023-01-13T11:58:51.060Z,11.20
2023-01-13T12:01:40.231Z,11.20
2023-01-13T12:04:33.582Z,11.30
2023-01-13T12:07:03.243Z,11.40
2023-01-13T12:10:13.560Z,11.60
2023-01-13T12:13:03.883Z,11.90
2023-01-13T12:15:42.489Z,12.10
2023-01-13T12:18:21.938Z,12.40
2023-01-13T12:21:10.516Z,12.60
2023-01-13T12:24:03.931Z,12.70
2023-01-13T12:26:37.730Z,12.70
2023-01-13T12:29:30.768Z,12.50
2023-01-13T12:32:01.672Z,12.30
2023-01-13T12:34:35.937Z,12.20
2023-01-13T12:37:12.438Z,12.10
2023-01-13T12:39:57.307Z,11.90
2023-01-13T12:43:19.855Z,11.80
2023-01-13T12:45:46.800Z,11.70
2023-01-13T12:48:53.052Z,11.50
2023-01-13T12:51:27.600Z,11.50
2023-01-13T12:53:56.411Z,11.40
2023-01-13T12:56:40.201Z,11.40
2023-01-13T12:59:33.916Z,11.40
2023-01-13T13:02:13.424Z,11.50
2023-01-13T13:04:47.906Z,11.90
2023-01-13T13:07:33.364Z,12.10
2023-01-13T13:10:19.867Z,12.10
2023-01-13T13:13:05.332Z,12.20
2023-01-13T13:15:34.221Z,12.20
2023-01-13T13:18:23.833Z,12.30
2023-01-13T13:21:07.001Z,12.30
2023-01-13T13:23:35.496Z,12.20
2023-01-13T13:26:14.271Z,12.10
2023-01-13T13:28:49.797Z,12.00
2023-01-13T13:31:34.409Z,11.90
2023-01-13T13:34:15.684Z,11.80
2023-01-13T13:36:50.035Z,11.70
2023-01-13T13:39:43.412Z,11.70
2023-01-13T13:42:34.577Z,11.60
2023-01-13T13:45:21.761Z,11.50
2023-01-13T13:47:48.792Z,11.50
2023-01-13T13:50:22.932Z,11.40
2023-01-13T13:52:54.511Z,11.30
2023-01-13T13:55:22.948Z,11.30
2023-01-13T13:57:54.618Z,11.30
2023-01-13T14:00:29.282Z,11.30
2023-01-13T14:03:01.977Z,11.20
2023-01-13T14:05:31.627Z,11.20
2023-01-13T14:08:09.618Z,11.20
2023-01-13T14:10:39.169Z,11.10
2023-01-13T14:13:17.682Z,11.10
2023-01-13T14:15:45.125Z,11.00
2023-01-13T14:18:18.392Z,10.90
2023-01-13T14:20:58.732Z,10.80
2023-01-13T14:23:30.782Z,10.70
2023-01-13T14:26:03.969Z,10.70
2023-01-13T14:28:36.725Z,10.60
2023-01-13T14:31:05.293Z,10.60
2023-01-13T14:33:47.173Z,10.50
2023-01-13T14:36:20.285Z,10.50
2023-01-13T14:39:07.126Z,10.50
2023-01-13T14:41:48.181Z,10.50
2023-01-13T14:44:51.126Z,10.50
2023-01-13T14:47:33.829Z,10.50
2023-01-13T14:50:31.556Z,10.40
2023-01-13T14:53:00.830Z,10.40
2023-01-13T14:55:40.602Z,10.30
2023-01-13T14:58:23.073Z,10.30
2023-01-13T15:00:51.665Z,10.20
2023-01-13T15:03:21.801Z,10.20
2023-01-13T15:05:53.401Z,10.10
2023-01-13T15:08:28.904Z,10.10
2023-01-13T15:11:00.567Z,10.10
2023-01-13T15:13:53.456Z,10.00
2023-01-13T15:16:26.061Z,10.00
2023-01-13T15:18:54.711Z,10.00
2023-01-13T15:21:22.046Z,9.90
2023-01-13T15:23:49.202Z,9.90
2023-01-13T15:26:20.686Z,9.90
2023-01-13T15:28:48.755Z,9.90
2023-01-13T15:31:15.764Z,9.90
2023-01-13T15:33:43.317Z,9.90
2023-01-13T15:36:27.190Z,9.80
2023-01-13T15:38:54.481Z,9.80
2023-01-13T15:41:41.792Z,9.90
2023-01-13T15:44:30.606Z,9.80
2023-01-13T15:46:59.012Z,9.80
2023-01-13T15:49:35.049Z,9.80
2023-01-13T15:52:15.302Z,9.80
2023-01-13T15:54:42.168Z,9.70
2023-01-13T15:57:24.783Z,9.70
2023-01-13T15:59:55.166Z,9.70
2023-01-13T16:02:22.744Z,9.60
2023-01-13T16:04:51.431Z,9.60
2023-01-13T16:07:20.178Z,9.60
2023-01-13T16:09:47.318Z,9.60
2023-01-13T16:12:14.465Z,9.50
2023-01-13T16:14:41.348Z,9.50
2023-01-13T16:17:29.746Z,9.40
2023-01-13T16:19:56.652Z,9.40
2023-01-13T16:22:23.529Z,9.30
2023-01-13T16:24:50.513Z,9.30
2023-01-13T16:27:18.789Z,9.20
2023-01-13T16:29:46.408Z,9.10
2023-01-13T16:32:14.119Z,9.10
2023-01-13T16:34:41.450Z,9.10
2023-01-13T16:37:26.297Z,9.00
2023-01-13T16:39:54.182Z,9.00
2023-01-13T16:42:21.458Z,9.00
2023-01-13T16:44:49.265Z,9.00
2023-01-13T16:47:17.886Z,9.00
2023-01-13T16:49:45.084Z,9.00
2023-01-13T16:52:12.049Z,9.00
2023-01-13T16:54:39.637Z,9.00
2023-01-13T16:57:08.331Z,8.90
2023-01-13T16:59:35.239Z,8.90
2023-01-13T17:02:02.319Z,9.00
2023-01-13T17:04:29.274Z,8.90
2023-01-13T17:06:56.139Z,8.90
2023-01-13T17:09:26.318Z,9.00
2023-01-13T17:11:53.269Z,8.90
2023-01-13T17:14:23.308Z,8.90
2023-01-13T17:16:52.772Z,8.90
2023-01-13T17:19:21.636Z,8.90
2023-01-13T17:21:51.009Z,8.90
2023-01-13T17:24:17.877Z,8.90
2023-01-13T17:26:49.067Z,8.90
2023-01-13T17:29:25.239Z,8.90
2023-01-13T17:31:52.786Z,8.90
2023-01-13T17:34:21.255Z,8.80
2023-01-13T17:36:48.399Z,8.80
2023-01-13T17:39:17.543Z,8.80
2023-01-13T17:41:45.460Z,8.80
2023-01-13T17:44:17.302Z,8.80
2023-01-13T17:46:44.830Z,8.70
2023-01-13T17:49:13.219Z,8.70
2023-01-13T17:51:40.312Z,8.70
2023-01-13T17:54:12.299Z,8.70
2023-01-13T17:56:40.685Z,8.60
2023-01-13T17:59:10.112Z,8.60
2023-01-13T18:01:37.639Z,8.60
2023-01-13T18:04:05.907Z,8.50
2023-01-13T18:06:32.834Z,8.50
2023-01-13T18:09:00.562Z,8.40
2023-01-13T18:11:28.028Z,8.40
2023-01-13T18:13:57.047Z,8.40
2023-01-13T18:16:25.101Z,8.30
2023-01-13T18:18:54.030Z,8.30
2023-01-13T18:21:42.857Z,8.20
2023-01-13T18:24:33.563Z,8.20
2023-01-13T18:27:19.310Z,8.10
2023-01-13T18:29:46.947Z,8.10
2023-01-13T18:32:14.527Z,8.10
2023-01-13T18:34:42.053Z,8.00
2023-01-13T18:37:10.256Z,8.00
2023-01-13T18:39:40.247Z,8.10
2023-01-13T18:42:27.274Z,8.10
2023-01-13T18:44:56.250Z,8.10
2023-01-13T18:47:28.876Z,8.20
2023-01-13T18:49:57.080Z,8.20
2023-01-13T18:52:24.806Z,8.30
2023-01-13T18:54:52.259Z,8.30
2023-01-13T18:57:19.311Z,8.30
2023-01-13T18:59:46.524Z,8.30
2023-01-13T19:02:16.623Z,8.30
2023-01-13T19:04:43.734Z,8.30
2023-01-13T19:07:13.411Z,8.20
2023-01-13T19:09:42.302Z,8.20
2023-01-13T19:12:11.862Z,8.30
2023-01-13T19:14:38.843Z,8.20
2023-01-13T19:17:11.136Z,8.30
2023-01-13T19:19:39.508Z,8.20
2023-01-13T19:22:07.452Z,8.30
2023-01-13T19:24:34.733Z,8.30
2023-01-13T19:27:01.764Z,8.30
2023-01-13T19:29:33.123Z,8.20
2023-01-13T19:32:00.944Z,8.20
2023-01-13T19:34:28.283Z,8.30
2023-01-13T19:36:55.304Z,8.20
2023-01-13T19:39:22.848Z,8.20
2023-01-13T19:42:08.453Z,8.20
2023-01-13T19:44:54.061Z,8.10
2023-01-13T19:47:21.086Z,8.10
2023-01-13T19:49:48.251Z,8.00
2023-01-13T19:52:15.524Z,7.90
2023-01-13T19:54:45.639Z,7.90
2023-01-13T19:57:13.257Z,7.80
2023-01-13T19:59:41.353Z,7.70
2023-01-13T20:02:16.855Z,7.70
2023-01-13T20:04:49.080Z,7.60
2023-01-13T20:07:16.210Z,7.50
2023-01-13T20:09:44.677Z,7.40
2023-01-13T20:12:15.421Z,7.40
2023-01-13T20:14:43.667Z,7.30
2023-01-13T20:17:12.763Z,7.30
2023-01-13T20:19:39.666Z,7.20
2023-01-13T20:22:07.616Z,7.10
2023-01-13T20:24:35.028Z,7.10
2023-01-13T20:27:02.649Z,7.00
2023-01-13T20:29:30.227Z,7.00
2023-01-13T20:31:57.608Z,6.90
2023-01-13T20:34:25.591Z,6.90
2023-01-13T20:36:53.413Z,6.90
2023-01-13T20:39:22.614Z,6.80
2023-01-13T20:42:08.379Z,6.80
2023-01-13T20:44:35.801Z,6.80
2023-01-13T20:47:03.192Z,6.90
2023-01-13T20:49:30.669Z,6.90
2023-01-13T20:51:59.037Z,6.80
2023-01-13T20:54:26.128Z,6.80
2023-01-13T20:56:54.108Z,6.70
2023-01-13T20:59:21.189Z,6.70
2023-01-13T21:01:48.167Z,6.60
2023-01-13T21:04:15.244Z,6.60
2023-01-13T21:06:42.147Z,6.60
2023-01-13T21:09:09.208Z,6.60
2023-01-13T21:11:54.835Z,6.50
2023-01-13T21:14:45.749Z,6.50
2023-01-13T21:17:34.086Z,6.50
2023-01-13T21:20:02.977Z,6.50
2023-01-13T21:22:31.293Z,6.40
2023-01-13T21:24:58.678Z,6.40
2023-01-13T21:27:26.043Z,6.40
2023-01-13T21:29:53.001Z,6.40
2023-01-13T21:32:20.028Z,6.40
2023-01-13T21:34:47.148Z,6.50
2023-01-13T21:37:16.064Z,6.50
2023-01-13T21:39:43.313Z,6.50
2023-01-13T21:42:33.238Z,6.50
2023-01-13T21:45:18.883Z,6.50
2023-01-13T21:47:48.822Z,6.50
2023-01-13T21:50:28.243Z,6.50
2023-01-13T21:52:55.907Z,6.50
2023-01-13T21:55:26.994Z,6.50
2023-01-13T21:58:01.037Z,6.50
2023-01-13T22:00:31.311Z,6.40
2023-01-13T22:03:01.049Z,6.40
2023-01-13T22:05:27.916Z,6.40
2023-01-13T22:07:54.927Z,6.30
2023-01-13T22:10:24.243Z,6.30
2023-01-13T22:12:55.558Z,6.30
2023-01-13T22:15:28.375Z,6.20
2023-01-13T22:17:56.442Z,6.20
2023-01-13T22:20:23.887Z,6.20
2023-01-13T22:22:50.882Z,6.20
2023-01-13T22:25:20.272Z,6.20
2023-01-13T22:27:48.696Z,6.10
2023-01-13T22:30:18.562Z,6.10
2023-01-13T22:32:46.301Z,6.10
2023-01-13T22:35:14.684Z,6.10
2023-01-13T22:37:42.527Z,6.10
2023-01-13T22:40:11.921Z,6.10
2023-01-13T22:42:42.923Z,6.00
2023-01-13T22:45:14.197Z,6.00
2023-01-13T22:47:41.388Z,6.00
2023-01-13T22:50:09.398Z,6.00
2023-01-13T22:52:36.472Z,6.00
2023-01-13T22:55:04.394Z,6.10
2023-01-13T22:57:46.750Z,6.10
2023-01-13T23:00:15.181Z,6.20
2023-01-13T23:02:42.178Z,6.20
2023-01-13T23:05:09.226Z,6.30
2023-01-13T23:07:36.401Z,6.30
2023-01-13T23:10:04.242Z,6.40
2023-01-13T23:12:31.261Z,6.40
2023-01-13T23:14:58.416Z,6.40
2023-01-13T23:17:25.505Z,6.50
2023-01-13T23:19:52.438Z,6.50
2023-01-13T23:22:19.311Z,6.60
2023-01-13T23:24:46.176Z,6.60
2023-01-13T23:27:13.164Z,6.70
2023-01-13T23:29:40.120Z,6.80
2023-01-13T23:32:06.942Z,6.90
2023-01-13T23:34:33.840Z,6.90
2023-01-13T23:37:00.763Z,7.00
2023-01-13T23:39:27.568Z,7.00
2023-01-13T23:41:54.996Z,7.00
2023-01-13T23:44:21.897Z,6.90
2023-01-13T23:46:48.812Z,6.90
2023-01-13T23:49:15.642Z,6.80
2023-01-13T23:51:42.560Z,6.70
2023-01-13T23:54:09.350Z,6.60
2023-01-13T23:56:39.673Z,6.60
2023-01-13T23:59:06.934Z,6.50
